Terminal Aerodrome Forecast
Issued by NWS

Home | Current Version | Previous Version | Text Only | Print | Product List | Glossary On
Versions: 1 2 3 4 5 6 7 8 9 10 11 12 13 14
000
FTUS44 KLUB 301736
TAFCDS
TAF
KCDS 301736Z 3018/3118 04011KT P6SM SCT100 SCT250
     FM302200 07011KT P6SM SCT050 BKN250
     FM310200 10009KT P6SM BKN250=

USA.gov is the U.S. government's official web portal to all federal, state and local government web resources and services.